createdAt,value
2022-10-28T00:01:45.257Z,12.72
2022-10-28T00:05:48.036Z,12.74
2022-10-28T00:09:50.636Z,12.68
2022-10-28T00:13:57.866Z,12.67
2022-10-28T00:18:00.057Z,12.69
2022-10-28T00:22:02.053Z,12.64
2022-10-28T00:26:16.096Z,12.61
2022-10-28T00:30:18.142Z,12.56
2022-10-28T00:34:23.860Z,12.52
2022-10-28T00:38:26.226Z,12.32
2022-10-28T00:42:28.503Z,12.31
2022-10-28T00:46:39.544Z,12.18
2022-10-28T00:50:54.051Z,12.33
2022-10-28T00:54:59.188Z,12.24
2022-10-28T00:59:07.629Z,12.18
2022-10-28T01:03:10.008Z,12.16
2022-10-28T01:07:12.463Z,12.17
2022-10-28T01:11:26.380Z,12.14
2022-10-28T01:15:48.798Z,12.14
2022-10-28T01:20:09.179Z,12.04
2022-10-28T01:24:40.263Z,12.01
2022-10-28T01:29:01.132Z,12.00
2022-10-28T01:33:07.488Z,12.07
2022-10-28T01:37:53.942Z,12.12
2022-10-28T01:42:14.898Z,12.09
2022-10-28T01:46:26.270Z,11.98
2022-10-28T01:50:50.908Z,12.07
2022-10-28T01:55:02.499Z,12.03
2022-10-28T01:59:07.864Z,12.01
2022-10-28T02:03:10.646Z,11.91
2022-10-28T02:07:13.433Z,11.93
2022-10-28T02:11:45.712Z,11.93
2022-10-28T02:16:23.433Z,11.96
2022-10-28T02:20:49.551Z,11.83
2022-10-28T02:25:12.511Z,11.68
2022-10-28T02:29:25.635Z,11.63
2022-10-28T02:33:33.237Z,11.59
2022-10-28T02:37:38.863Z,11.53
2022-10-28T02:41:57.662Z,11.47
2022-10-28T02:46:02.810Z,11.46
2022-10-28T02:50:09.362Z,11.50
2022-10-28T02:54:26.225Z,11.57
2022-10-28T02:58:28.978Z,11.53
2022-10-28T03:02:31.166Z,11.52
2022-10-28T03:06:33.231Z,11.58
2022-10-28T03:10:35.220Z,11.56
2022-10-28T03:14:37.762Z,11.51
2022-10-28T03:18:39.863Z,11.52
2022-10-28T03:22:45.316Z,11.49
2022-10-28T03:26:47.257Z,11.43
2022-10-28T03:30:50.544Z,11.36
2022-10-28T03:34:52.638Z,11.34
2022-10-28T03:38:54.699Z,11.38
2022-10-28T03:42:56.935Z,11.41
2022-10-28T03:46:58.938Z,11.33
2022-10-28T03:51:00.969Z,11.37
2022-10-28T03:55:03.746Z,11.43
2022-10-28T03:59:06.428Z,11.39
2022-10-28T04:03:08.363Z,11.37
2022-10-28T04:07:10.346Z,11.31
2022-10-28T04:11:12.319Z,11.17
2022-10-28T04:15:14.485Z,11.20
2022-10-28T04:19:16.502Z,11.27
2022-10-28T04:23:18.518Z,11.28
2022-10-28T04:27:21.633Z,11.29
2022-10-28T04:31:23.583Z,11.30
2022-10-28T04:35:25.797Z,11.36
2022-10-28T04:39:27.738Z,11.36
2022-10-28T04:43:29.684Z,11.39
2022-10-28T04:47:31.625Z,11.31
2022-10-28T04:51:33.668Z,11.33
2022-10-28T04:55:35.801Z,11.33
2022-10-28T04:59:37.847Z,11.23
2022-10-28T05:03:39.837Z,11.18
2022-10-28T05:07:42.033Z,11.17
2022-10-28T05:11:44.179Z,10.99
2022-10-28T05:15:49.129Z,11.02
2022-10-28T05:19:51.063Z,10.95
2022-10-28T05:23:52.998Z,11.01
2022-10-28T05:27:59.785Z,11.09
2022-10-28T05:32:01.763Z,11.20
2022-10-28T05:36:04.449Z,11.14
2022-10-28T05:40:08.225Z,11.08
2022-10-28T05:44:10.260Z,10.95
2022-10-28T05:48:12.232Z,10.90
2022-10-28T05:52:14.223Z,10.98
2022-10-28T05:56:16.187Z,11.10
2022-10-28T06:00:21.521Z,11.11
2022-10-28T06:04:24.862Z,11.17
2022-10-28T06:08:27.598Z,11.24
2022-10-28T06:12:28.016Z,11.31
2022-10-28T06:16:30.188Z,11.31
2022-10-28T06:20:32.344Z,11.42
2022-10-28T06:24:34.327Z,11.53
2022-10-28T06:28:37.161Z,11.59
2022-10-28T06:32:39.181Z,11.65
2022-10-28T06:36:41.375Z,11.75
2022-10-28T06:40:43.364Z,11.83
2022-10-28T06:44:45.316Z,11.93
2022-10-28T06:48:49.000Z,12.06
2022-10-28T06:52:51.260Z,12.18
2022-10-28T06:56:55.749Z,12.35
2022-10-28T07:01:03.937Z,12.50
2022-10-28T07:05:06.517Z,12.60
2022-10-28T07:09:13.479Z,12.73
2022-10-28T07:13:15.412Z,12.82
2022-10-28T07:17:17.381Z,12.95
2022-10-28T07:21:21.917Z,13.09
2022-10-28T07:25:23.751Z,13.30
2022-10-28T07:29:25.670Z,13.41
2022-10-28T07:33:27.868Z,13.55
2022-10-28T07:37:29.793Z,13.69
2022-10-28T07:41:32.021Z,13.80
2022-10-28T07:45:35.811Z,13.96
2022-10-28T07:49:37.799Z,14.13
2022-10-28T07:53:40.622Z,14.32
2022-10-28T07:57:42.646Z,14.49
2022-10-28T08:01:45.307Z,14.71
2022-10-28T08:05:48.166Z,14.86
2022-10-28T08:09:52.668Z,14.97
2022-10-28T08:13:56.061Z,15.15
2022-10-28T08:17:57.988Z,15.38
2022-10-28T08:22:00.051Z,15.56
2022-10-28T08:26:02.023Z,15.78
2022-10-28T08:30:04.762Z,15.97
2022-10-28T08:34:07.677Z,16.16
2022-10-28T08:38:10.188Z,16.41
2022-10-28T08:42:44.603Z,16.65
2022-10-28T08:46:46.983Z,16.85
2022-10-28T08:50:59.359Z,17.04
2022-10-28T08:55:36.246Z,17.12
2022-10-28T08:59:41.255Z,17.52
2022-10-28T09:03:46.554Z,17.76
2022-10-28T09:07:49.127Z,17.98
2022-10-28T09:12:19.165Z,18.15
2022-10-28T09:16:45.879Z,18.35
2022-10-28T09:20:54.379Z,18.46
2022-10-28T09:25:03.462Z,18.60
2022-10-28T09:29:35.290Z,18.83
2022-10-28T09:33:47.976Z,19.10
2022-10-28T09:37:57.664Z,19.26
2022-10-28T09:42:01.299Z,19.49
2022-10-28T09:46:12.253Z,19.65
2022-10-28T09:50:18.492Z,19.73
2022-10-28T09:54:31.724Z,19.82
2022-10-28T09:58:34.682Z,19.99
2022-10-28T10:02:40.227Z,20.09
2022-10-28T10:06:43.195Z,20.19
2022-10-28T10:11:02.327Z,20.31
2022-10-28T10:15:07.668Z,20.45
2022-10-28T10:19:11.381Z,20.50
2022-10-28T10:23:30.133Z,20.78
2022-10-28T10:27:32.557Z,20.85
2022-10-28T10:31:34.594Z,21.06
2022-10-28T10:35:38.026Z,21.10
2022-10-28T10:39:40.415Z,21.24
2022-10-28T10:43:42.408Z,21.28
2022-10-28T10:47:44.407Z,21.39
2022-10-28T10:52:01.190Z,21.44
2022-10-28T10:56:08.633Z,21.62
2022-10-28T11:00:17.021Z,21.78
2022-10-28T11:04:23.389Z,21.81
2022-10-28T11:08:25.458Z,21.93
2022-10-28T11:12:35.651Z,22.03
2022-10-28T11:16:48.215Z,22.12
2022-10-28T11:20:57.610Z,22.19
2022-10-28T11:25:27.847Z,22.35
2022-10-28T11:29:29.803Z,22.50
2022-10-28T11:34:01.054Z,22.57
2022-10-28T11:38:06.064Z,22.65
2022-10-28T11:42:30.648Z,22.72
2022-10-28T11:47:12.179Z,22.84
2022-10-28T11:51:48.255Z,22.92
2022-10-28T11:56:13.437Z,22.94
2022-10-28T12:00:25.255Z,23.09
2022-10-28T12:04:42.465Z,23.18
2022-10-28T12:08:53.439Z,23.30
2022-10-28T12:13:20.561Z,23.36
2022-10-28T12:17:54.726Z,23.41
2022-10-28T12:22:26.364Z,23.45
2022-10-28T12:26:40.767Z,23.48
2022-10-28T12:30:43.345Z,23.59
2022-10-28T12:34:48.939Z,23.65
2022-10-28T12:39:13.239Z,23.61
2022-10-28T12:43:36.986Z,23.78
2022-10-28T12:48:13.953Z,23.80
2022-10-28T12:52:40.786Z,23.85
2022-10-28T12:56:50.678Z,23.96
2022-10-28T13:01:04.443Z,23.97
2022-10-28T13:05:07.542Z,24.00
2022-10-28T13:09:39.841Z,24.04
2022-10-28T13:14:00.130Z,23.98
2022-10-28T13:18:21.104Z,24.06
2022-10-28T13:22:54.499Z,24.11
2022-10-28T13:26:57.488Z,24.14
2022-10-28T13:31:02.403Z,24.24
2022-10-28T13:35:25.368Z,24.31
2022-10-28T13:39:33.131Z,24.36
2022-10-28T13:43:50.414Z,24.43
2022-10-28T13:47:52.351Z,24.46
2022-10-28T13:52:20.484Z,24.28
2022-10-28T13:56:34.691Z,24.22
2022-10-28T14:00:37.835Z,24.18
2022-10-28T14:04:41.534Z,24.12
2022-10-28T14:08:43.867Z,24.02
2022-10-28T14:12:54.824Z,23.90
2022-10-28T14:16:57.376Z,23.91
2022-10-28T14:21:01.659Z,23.83
2022-10-28T14:25:44.487Z,23.78
2022-10-28T14:30:11.092Z,23.77
2022-10-28T14:34:13.032Z,23.66
2022-10-28T14:38:39.457Z,23.56
2022-10-28T14:42:58.497Z,23.49
2022-10-28T14:47:29.948Z,23.38
2022-10-28T14:51:41.900Z,23.30
2022-10-28T14:55:47.469Z,23.24
2022-10-28T14:59:51.771Z,23.12
2022-10-28T15:03:58.053Z,23.06
2022-10-28T15:08:03.333Z,23.01
2022-10-28T15:12:11.761Z,22.93
2022-10-28T15:16:25.157Z,22.84
2022-10-28T15:20:28.986Z,22.73
2022-10-28T15:24:30.921Z,22.54
2022-10-28T15:28:33.340Z,22.30
2022-10-28T15:32:35.798Z,22.06
2022-10-28T15:36:37.917Z,21.82
2022-10-28T15:40:40.047Z,21.60
2022-10-28T15:44:42.065Z,21.36
2022-10-28T15:48:44.249Z,21.13
2022-10-28T15:52:50.112Z,20.86
2022-10-28T15:56:57.656Z,20.59
2022-10-28T16:00:59.718Z,20.32
2022-10-28T16:05:01.950Z,20.09
2022-10-28T16:09:13.341Z,19.82
2022-10-28T16:13:20.687Z,19.57
2022-10-28T16:17:29.276Z,19.33
2022-10-28T16:21:32.257Z,19.14
2022-10-28T16:25:34.181Z,19.01
2022-10-28T16:29:36.226Z,18.87
2022-10-28T16:33:38.488Z,18.74
2022-10-28T16:37:44.592Z,18.58
2022-10-28T16:41:57.817Z,18.48
2022-10-28T16:46:00.822Z,18.50
2022-10-28T16:50:02.824Z,18.45
2022-10-28T16:54:04.944Z,18.37
2022-10-28T16:58:07.654Z,18.19
2022-10-28T17:02:18.509Z,18.02
2022-10-28T17:06:20.572Z,17.76
2022-10-28T17:10:23.120Z,17.60
2022-10-28T17:14:26.114Z,17.49
2022-10-28T17:18:28.038Z,17.46
2022-10-28T17:22:30.649Z,17.45
2022-10-28T17:26:32.798Z,17.62
2022-10-28T17:30:35.690Z,17.79
2022-10-28T17:34:38.230Z,17.60
2022-10-28T17:38:40.599Z,17.52
2022-10-28T17:42:42.571Z,17.24
2022-10-28T17:46:44.527Z,16.88
2022-10-28T17:50:54.141Z,16.63
2022-10-28T17:54:56.702Z,16.66
2022-10-28T17:59:01.602Z,16.64
2022-10-28T18:03:04.913Z,16.46
2022-10-28T18:07:06.905Z,16.45
2022-10-28T18:11:10.747Z,16.50
2022-10-28T18:15:12.687Z,16.11
2022-10-28T18:19:14.753Z,15.85
2022-10-28T18:23:16.757Z,15.62
2022-10-28T18:27:18.744Z,15.48
2022-10-28T18:31:21.254Z,15.23
2022-10-28T18:35:23.210Z,15.17
2022-10-28T18:39:25.212Z,15.18
2022-10-28T18:43:28.325Z,14.96
2022-10-28T18:47:31.041Z,14.83
2022-10-28T18:51:33.704Z,14.88
2022-10-28T18:55:35.722Z,14.80
2022-10-28T18:59:52.357Z,14.50
2022-10-28T19:04:02.385Z,14.33
2022-10-28T19:08:04.466Z,14.30
2022-10-28T19:12:07.860Z,14.29
2022-10-28T19:16:10.592Z,14.07
2022-10-28T19:20:12.880Z,13.89
2022-10-28T19:24:14.805Z,13.80
2022-10-28T19:28:16.830Z,13.54
2022-10-28T19:32:19.155Z,13.45
2022-10-28T19:36:24.210Z,13.34
2022-10-28T19:40:26.242Z,13.37
2022-10-28T19:44:28.521Z,13.37
2022-10-28T19:48:30.752Z,13.37
2022-10-28T19:52:32.714Z,13.32
2022-10-28T19:56:35.777Z,13.28
2022-10-28T20:00:37.873Z,13.18
2022-10-28T20:04:40.182Z,13.06
2022-10-28T20:08:44.468Z,13.04
2022-10-28T20:12:46.425Z,13.05
2022-10-28T20:16:49.276Z,12.76
2022-10-28T20:20:51.510Z,12.69
2022-10-28T20:24:53.551Z,12.66
2022-10-28T20:28:56.534Z,12.55
2022-10-28T20:32:58.600Z,12.51
2022-10-28T20:37:00.582Z,12.44
2022-10-28T20:41:02.535Z,12.48
2022-10-28T20:45:04.901Z,12.51
2022-10-28T20:49:10.705Z,12.52
2022-10-28T20:53:12.660Z,12.48
2022-10-28T20:57:14.689Z,12.46
2022-10-28T21:01:22.681Z,12.39
2022-10-28T21:05:24.844Z,12.32
2022-10-28T21:09:26.753Z,12.28
2022-10-28T21:13:29.142Z,12.11
2022-10-28T21:17:31.120Z,12.10
2022-10-28T21:21:33.010Z,11.94
2022-10-28T21:25:35.068Z,11.91
2022-10-28T21:29:37.013Z,11.74
2022-10-28T21:33:40.466Z,11.67
2022-10-28T21:37:42.626Z,11.80
2022-10-28T21:41:44.729Z,11.72
2022-10-28T21:45:46.859Z,11.69
2022-10-28T21:49:48.978Z,11.72
2022-10-28T21:53:50.941Z,11.60
2022-10-28T21:57:53.076Z,11.63
2022-10-28T22:01:55.843Z,11.66
2022-10-28T22:05:58.231Z,11.63
2022-10-28T22:10:00.448Z,11.58
2022-10-28T22:14:04.372Z,11.48
2022-10-28T22:18:06.440Z,11.44
2022-10-28T22:22:08.643Z,11.37
2022-10-28T22:26:13.828Z,11.39
2022-10-28T22:30:15.849Z,11.30
2022-10-28T22:34:17.868Z,11.37
2022-10-28T22:38:19.877Z,11.39
2022-10-28T22:42:21.850Z,11.31
2022-10-28T22:46:26.246Z,11.16
2022-10-28T22:50:28.583Z,11.06
2022-10-28T22:54:30.512Z,10.94
2022-10-28T22:58:32.806Z,10.88
2022-10-28T23:02:34.914Z,10.90
2022-10-28T23:06:37.189Z,10.92
2022-10-28T23:10:39.084Z,10.97
2022-10-28T23:14:41.026Z,10.97
2022-10-28T23:18:43.877Z,10.88
2022-10-28T23:22:45.937Z,10.89
2022-10-28T23:26:48.233Z,10.81
2022-10-28T23:30:50.333Z,10.77
2022-10-28T23:34:52.480Z,10.72
2022-10-28T23:38:56.703Z,10.66
2022-10-28T23:42:59.028Z,10.54
2022-10-28T23:47:01.051Z,10.56
2022-10-28T23:51:03.597Z,10.57
2022-10-28T23:55:06.154Z,10.56
2022-10-28T23:59:08.373Z,10.51
